createdAt,value
2019-02-17T00:00:29.698Z,151.53
2019-02-17T00:02:57.992Z,152.30
2019-02-17T00:05:26.558Z,150.07
2019-02-17T00:07:54.854Z,145.13
2019-02-17T00:10:23.168Z,135.57
2019-02-17T00:12:51.814Z,136.67
2019-02-17T00:15:20.142Z,139.27
2019-02-17T00:17:48.442Z,143.50
2019-02-17T00:20:17.040Z,143.17
2019-02-17T00:22:45.376Z,146.17
2019-02-17T00:25:13.671Z,150.13
2019-02-17T00:27:41.989Z,151.87
2019-02-17T00:30:11.717Z,154.50
2019-02-17T00:32:40.019Z,155.27
2019-02-17T00:35:09.957Z,147.87
2019-02-17T00:37:38.254Z,147.23
2019-02-17T00:40:07.827Z,144.77
2019-02-17T00:42:36.670Z,149.20
2019-02-17T00:45:06.296Z,143.10
2019-02-17T00:47:34.960Z,146.33
2019-02-17T00:50:03.858Z,145.83
2019-02-17T00:52:32.218Z,136.10
2019-02-17T00:55:00.796Z,137.27
2019-02-17T00:57:29.378Z,136.13
2019-02-17T00:59:57.962Z,137.33
2019-02-17T01:02:26.550Z,135.47
2019-02-17T01:04:55.135Z,135.17
2019-02-17T01:07:23.731Z,132.43
2019-02-17T01:09:52.408Z,132.70
2019-02-17T01:12:21.003Z,134.47
2019-02-17T01:14:49.312Z,135.63
2019-02-17T01:17:17.612Z,123.87
2019-02-17T01:19:45.921Z,119.97
2019-02-17T01:22:14.503Z,120.00
2019-02-17T01:24:43.704Z,126.50
2019-02-17T01:27:12.010Z,128.73
2019-02-17T01:29:40.319Z,123.23
2019-02-17T01:32:08.611Z,129.27
2019-02-17T01:34:36.918Z,125.87
2019-02-17T01:37:05.298Z,127.00
2019-02-17T01:39:33.895Z,125.37
2019-02-17T01:42:02.633Z,125.50
2019-02-17T01:44:31.379Z,124.17
2019-02-17T01:46:59.687Z,122.90
2019-02-17T01:49:28.003Z,118.40
2019-02-17T01:51:56.590Z,107.33
2019-02-17T01:54:24.894Z,109.33
2019-02-17T01:56:53.222Z,104.63
2019-02-17T01:59:30.350Z,116.37
2019-02-17T02:01:52.255Z,128.03
2019-02-17T02:04:20.835Z,125.57
2019-02-17T02:06:49.128Z,124.80
2019-02-17T02:09:17.446Z,125.63
2019-02-17T02:11:46.083Z,124.30
2019-02-17T02:14:14.447Z,120.87
2019-02-17T02:16:42.757Z,122.70
2019-02-17T02:19:11.040Z,123.30
2019-02-17T02:21:39.347Z,123.97
2019-02-17T02:24:07.658Z,120.67
2019-02-17T02:26:35.963Z,116.73
2019-02-17T02:29:04.256Z,119.00
2019-02-17T02:31:32.926Z,117.33
2019-02-17T02:34:01.666Z,116.00
2019-02-17T02:36:30.061Z,113.13
2019-02-17T02:38:58.347Z,113.20
2019-02-17T02:41:34.245Z,112.80
2019-02-17T02:43:56.985Z,112.50
2019-02-17T02:46:25.626Z,108.87
2019-02-17T02:48:54.216Z,109.70
2019-02-17T02:51:22.795Z,108.90
2019-02-17T02:53:51.378Z,102.13
2019-02-17T02:56:19.691Z,97.00
2019-02-17T02:58:48.348Z,114.13
2019-02-17T03:01:16.649Z,116.50
2019-02-17T03:03:46.075Z,118.23
2019-02-17T03:06:22.187Z,120.97
2019-02-17T03:08:50.605Z,120.27
2019-02-17T03:11:19.255Z,121.03
2019-02-17T03:13:47.832Z,119.53
2019-02-17T03:16:16.163Z,119.43
2019-02-17T03:18:44.450Z,119.03
2019-02-17T03:21:12.758Z,112.87
2019-02-17T03:23:41.052Z,106.23
2019-02-17T03:26:09.447Z,116.63
2019-02-17T03:28:37.747Z,118.47
2019-02-17T03:31:06.039Z,126.33
2019-02-17T03:33:34.495Z,117.53
2019-02-17T03:36:02.935Z,114.27
2019-02-17T03:38:31.222Z,122.47
2019-02-17T03:40:59.537Z,127.97
2019-02-17T03:43:28.193Z,126.63
2019-02-17T03:45:56.498Z,122.00
2019-02-17T03:48:24.801Z,128.53
2019-02-17T03:50:53.354Z,125.93
2019-02-17T03:53:21.768Z,123.43
2019-02-17T03:55:50.380Z,117.37
2019-02-17T03:58:18.664Z,126.03
2019-02-17T04:00:46.987Z,134.23
2019-02-17T04:03:15.618Z,133.30
2019-02-17T04:05:44.269Z,135.63
2019-02-17T04:08:12.684Z,131.60
2019-02-17T04:10:40.982Z,131.83
2019-02-17T04:13:09.357Z,131.53
2019-02-17T04:15:37.653Z,131.97
2019-02-17T04:18:05.961Z,130.40
2019-02-17T04:20:36.444Z,129.80
2019-02-17T04:23:05.126Z,129.23
2019-02-17T04:25:33.432Z,130.00
2019-02-17T04:28:01.814Z,123.90
2019-02-17T04:30:30.136Z,80.00
2019-02-17T04:32:58.748Z,67.90
2019-02-17T04:35:27.051Z,74.50
2019-02-17T04:37:55.340Z,88.37
2019-02-17T04:40:23.626Z,84.43
2019-02-17T04:42:52.264Z,92.53
2019-02-17T04:45:20.583Z,94.47
2019-02-17T04:47:48.867Z,93.73
2019-02-17T04:50:17.179Z,90.77
2019-02-17T04:52:45.534Z,91.67
2019-02-17T04:55:13.830Z,88.37
2019-02-17T04:57:42.436Z,87.83
2019-02-17T05:00:10.743Z,88.07
2019-02-17T05:02:39.394Z,83.17
2019-02-17T05:05:07.669Z,85.63
2019-02-17T05:07:36.260Z,84.60
2019-02-17T05:10:05.080Z,84.67
2019-02-17T05:12:33.391Z,82.17
2019-02-17T05:15:01.696Z,80.67
2019-02-17T05:17:30.282Z,81.73
2019-02-17T05:19:58.596Z,76.97
2019-02-17T05:22:26.976Z,79.40
2019-02-17T05:24:55.269Z,76.63
2019-02-17T05:30:17.182Z,77.03
2019-02-17T05:32:45.750Z,75.60
2019-02-17T05:35:14.038Z,73.87
2019-02-17T05:37:42.358Z,74.87
2019-02-17T05:40:10.644Z,73.57
2019-02-17T05:42:38.943Z,73.37
2019-02-17T05:47:56.091Z,70.63
2019-02-17T05:50:24.401Z,70.93
2019-02-17T05:52:52.954Z,71.57
2019-02-17T05:55:21.342Z,69.17
2019-02-17T05:57:50.019Z,67.83
2019-02-17T06:00:19.949Z,69.00
2019-02-17T06:02:48.259Z,66.33
2019-02-17T06:05:16.549Z,67.70
2019-02-17T06:07:44.860Z,64.13
2019-02-17T06:10:13.215Z,64.33
2019-02-17T06:12:41.822Z,64.80
2019-02-17T06:15:10.529Z,64.53
2019-02-17T06:17:39.203Z,64.33
2019-02-17T06:20:10.047Z,62.63
2019-02-17T06:22:38.646Z,64.07
2019-02-17T06:25:06.951Z,60.27
2019-02-17T06:27:35.509Z,61.37
2019-02-17T06:30:05.690Z,60.80
2019-02-17T06:32:34.054Z,59.53
2019-02-17T06:35:02.679Z,59.50
2019-02-17T06:37:33.686Z,57.03
2019-02-17T06:40:02.298Z,57.90
2019-02-17T06:42:30.580Z,59.33
2019-02-17T06:44:59.154Z,55.90
2019-02-17T06:47:29.074Z,56.43
2019-02-17T06:49:57.662Z,56.87
2019-02-17T06:52:25.958Z,58.63
2019-02-17T06:55:04.798Z,53.37
2019-02-17T06:57:34.719Z,55.37
2019-02-17T07:00:10.799Z,55.20
2019-02-17T07:02:39.413Z,55.90
2019-02-17T07:05:18.356Z,54.83
2019-02-17T07:07:46.739Z,52.27
2019-02-17T07:10:15.079Z,54.20
2019-02-17T07:12:43.682Z,51.57
2019-02-17T07:15:11.995Z,49.03
2019-02-17T07:17:40.274Z,50.20
2019-02-17T07:20:09.807Z,58.50
2019-02-17T07:22:38.536Z,55.83
2019-02-17T07:25:07.095Z,56.60
2019-02-17T07:27:35.798Z,57.40
2019-02-17T07:30:04.967Z,56.77
2019-02-17T07:32:33.582Z,55.97
2019-02-17T07:35:01.899Z,53.90
2019-02-17T07:37:33.422Z,55.73
2019-02-17T07:40:00.411Z,57.50
2019-02-17T07:42:29.053Z,57.37
2019-02-17T07:44:57.631Z,59.13
2019-02-17T07:47:25.927Z,59.57
2019-02-17T07:49:54.227Z,57.93
2019-02-17T07:52:22.511Z,57.43
2019-02-17T07:54:50.812Z,56.17
2019-02-17T07:57:19.097Z,57.50
2019-02-17T07:59:47.681Z,55.93
2019-02-17T08:02:15.970Z,56.60
2019-02-17T08:04:44.556Z,55.03
2019-02-17T08:07:12.856Z,54.70
2019-02-17T08:09:41.132Z,54.67
2019-02-17T08:12:09.536Z,52.13
2019-02-17T08:14:37.851Z,52.13
2019-02-17T08:17:06.567Z,53.10
2019-02-17T08:19:34.933Z,51.17
2019-02-17T08:22:03.642Z,51.77
2019-02-17T08:24:31.926Z,51.57
2019-02-17T08:27:00.261Z,52.57
2019-02-17T08:29:28.863Z,49.20
2019-02-17T08:31:57.177Z,50.30
2019-02-17T08:34:44.923Z,48.03
2019-02-17T08:37:13.563Z,48.90
2019-02-17T08:39:41.858Z,46.73
2019-02-17T08:42:10.414Z,47.17
2019-02-17T08:44:38.745Z,46.97
2019-02-17T08:47:07.094Z,46.13
2019-02-17T08:49:35.664Z,45.50
2019-02-17T08:52:03.985Z,44.73
2019-02-17T08:54:32.327Z,43.80
2019-02-17T08:57:01.002Z,44.93
2019-02-17T08:59:29.377Z,43.60
2019-02-17T09:02:05.620Z,43.77
2019-02-17T09:04:28.090Z,43.60
2019-02-17T09:06:56.665Z,44.23
2019-02-17T09:09:25.259Z,41.17
2019-02-17T09:11:53.567Z,42.10
2019-02-17T09:14:22.022Z,38.50
2019-02-17T09:16:53.458Z,40.30
2019-02-17T09:19:21.868Z,39.70
2019-02-17T09:21:50.422Z,38.37
2019-02-17T09:24:18.740Z,40.00
2019-02-17T09:26:47.398Z,38.50
2019-02-17T09:29:15.685Z,38.17
2019-02-17T09:31:44.346Z,38.87
2019-02-17T09:34:12.926Z,37.90
2019-02-17T09:36:41.251Z,40.17
2019-02-17T09:39:10.071Z,39.03
2019-02-17T09:41:38.679Z,36.53
2019-02-17T09:44:06.961Z,38.70
2019-02-17T09:46:35.283Z,35.40
2019-02-17T09:49:03.569Z,36.50
2019-02-17T09:51:31.886Z,36.63
2019-02-17T09:54:00.186Z,36.10
2019-02-17T09:56:28.482Z,35.53
2019-02-17T09:58:56.812Z,34.67
2019-02-17T10:01:25.199Z,34.60
2019-02-17T10:03:53.490Z,32.93
2019-02-17T10:06:22.289Z,32.70
2019-02-17T10:08:50.589Z,32.50
2019-02-17T10:11:18.886Z,33.23
2019-02-17T10:13:47.506Z,31.40
2019-02-17T10:16:17.422Z,32.47
2019-02-17T10:18:45.755Z,31.83
2019-02-17T10:21:14.489Z,32.47
2019-02-17T10:23:43.168Z,32.27
2019-02-17T10:26:11.828Z,29.70
2019-02-17T10:28:42.509Z,28.07
2019-02-17T10:31:10.730Z,26.50
2019-02-17T10:33:39.034Z,31.40
2019-02-17T10:36:07.336Z,32.43
2019-02-17T10:38:35.644Z,33.30
2019-02-17T10:41:03.923Z,34.37
2019-02-17T10:43:32.252Z,37.27
2019-02-17T10:46:00.537Z,35.47
2019-02-17T10:48:28.849Z,34.03
2019-02-17T10:50:57.454Z,33.70
2019-02-17T10:53:26.047Z,36.63
2019-02-17T10:55:54.648Z,38.93
2019-02-17T10:58:22.952Z,37.87
2019-02-17T11:00:51.583Z,39.93
2019-02-17T11:03:20.206Z,39.47
2019-02-17T11:05:48.751Z,40.20
2019-02-17T11:08:17.059Z,38.40
2019-02-17T11:10:45.611Z,36.43
2019-02-17T11:13:14.347Z,36.00
2019-02-17T11:15:43.002Z,35.67
2019-02-17T11:18:11.299Z,33.53
2019-02-17T11:20:39.955Z,33.93
2019-02-17T11:23:08.535Z,32.67
2019-02-17T11:25:37.076Z,31.50
2019-02-17T11:28:05.425Z,29.90
2019-02-17T11:30:34.086Z,29.97
2019-02-17T11:33:02.870Z,28.37
2019-02-17T11:35:31.454Z,34.00
2019-02-17T11:37:59.741Z,46.43
2019-02-17T11:40:28.315Z,48.63
2019-02-17T11:42:56.909Z,47.17
2019-02-17T11:45:25.220Z,46.63
2019-02-17T11:47:53.863Z,44.90
2019-02-17T11:50:22.442Z,46.13
2019-02-17T11:52:51.244Z,43.97
2019-02-17T11:55:22.867Z,43.37
2019-02-17T11:57:50.144Z,55.93
2019-02-17T12:00:23.010Z,53.27
2019-02-17T12:02:51.719Z,49.97
2019-02-17T12:05:20.028Z,51.03
2019-02-17T12:07:48.586Z,52.67
2019-02-17T12:10:17.119Z,53.20
2019-02-17T12:12:45.779Z,55.30
2019-02-17T12:15:14.375Z,52.77
2019-02-17T12:17:42.727Z,53.27
2019-02-17T12:20:41.002Z,51.77
2019-02-17T12:23:14.076Z,49.70
2019-02-17T12:25:50.077Z,49.93
2019-02-17T12:28:26.300Z,49.13
2019-02-17T12:30:54.659Z,48.00
2019-02-17T12:33:22.965Z,46.50
2019-02-17T12:35:51.259Z,46.20
2019-02-17T12:38:19.567Z,47.53
2019-02-17T12:40:48.191Z,51.23
2019-02-17T12:43:16.527Z,63.93
2019-02-17T12:45:44.808Z,67.60
2019-02-17T12:48:13.097Z,63.13
2019-02-17T12:50:41.716Z,60.70
2019-02-17T12:53:10.399Z,60.57
2019-02-17T12:55:39.543Z,58.07
2019-02-17T12:58:08.191Z,59.53
2019-02-17T13:00:37.293Z,55.93
2019-02-17T13:03:05.638Z,55.23
2019-02-17T13:05:33.950Z,63.83
2019-02-17T13:08:02.242Z,78.50
2019-02-17T13:10:30.632Z,76.63
2019-02-17T13:12:58.993Z,77.07
2019-02-17T13:15:27.678Z,82.23
2019-02-17T13:17:56.125Z,79.70
2019-02-17T13:20:24.410Z,80.07
2019-02-17T13:22:53.012Z,78.67
2019-02-17T13:25:21.306Z,67.13
2019-02-17T13:27:49.597Z,63.50
2019-02-17T13:30:20.685Z,65.03
2019-02-17T13:32:48.977Z,63.10
2019-02-17T13:35:17.289Z,65.10
2019-02-17T13:37:45.575Z,73.47
2019-02-17T13:40:14.227Z,83.27
2019-02-17T13:42:42.818Z,70.97
2019-02-17T13:45:15.562Z,66.87
2019-02-17T13:47:43.847Z,59.63
2019-02-17T13:50:17.024Z,58.23
2019-02-17T13:52:45.625Z,59.57
2019-02-17T13:55:13.973Z,59.83
2019-02-17T13:57:42.595Z,58.00
2019-02-17T14:00:16.606Z,58.23
2019-02-17T14:02:45.174Z,56.90
2019-02-17T14:05:13.779Z,56.40
2019-02-17T14:07:42.372Z,56.40
2019-02-17T14:10:15.277Z,55.77
2019-02-17T14:12:43.952Z,54.27
2019-02-17T14:15:20.402Z,54.60
2019-02-17T14:17:48.722Z,50.97
2019-02-17T14:22:46.456Z,47.97
2019-02-17T14:25:14.795Z,48.70
2019-02-17T14:27:43.519Z,43.47
2019-02-17T14:30:14.369Z,49.87
2019-02-17T14:32:42.947Z,55.70
2019-02-17T14:35:11.525Z,57.10
2019-02-17T14:37:39.898Z,58.90
2019-02-17T14:40:12.727Z,55.10
2019-02-17T14:42:41.379Z,56.10
2019-02-17T14:45:12.161Z,55.27
2019-02-17T14:47:40.487Z,52.87
2019-02-17T14:50:09.126Z,53.53
2019-02-17T14:52:37.444Z,50.20
2019-02-17T14:55:08.233Z,50.70
2019-02-17T14:57:36.671Z,50.90
2019-02-17T15:00:16.030Z,50.77
2019-02-17T15:02:44.402Z,50.40
2019-02-17T15:05:14.855Z,52.93
2019-02-17T15:07:43.174Z,54.47
2019-02-17T15:10:12.593Z,54.70
2019-02-17T15:12:41.175Z,52.80
2019-02-17T15:15:11.360Z,52.83
2019-02-17T15:17:39.716Z,50.30
2019-02-17T15:20:11.458Z,51.70
2019-02-17T15:22:39.765Z,50.67
2019-02-17T15:25:10.569Z,50.23
2019-02-17T15:27:38.959Z,50.57
2019-02-17T15:30:14.266Z,48.40
2019-02-17T15:32:42.845Z,48.47
2019-02-17T15:35:11.186Z,46.13
2019-02-17T15:37:39.811Z,45.83
2019-02-17T15:40:11.567Z,44.67
2019-02-17T15:42:39.886Z,45.33
2019-02-17T15:45:12.938Z,44.87
2019-02-17T15:47:41.298Z,44.40
2019-02-17T15:50:12.259Z,43.03
2019-02-17T15:52:40.559Z,44.57
2019-02-17T15:55:15.614Z,42.60
2019-02-17T15:57:44.000Z,43.73
2019-02-17T16:00:16.994Z,40.03
2019-02-17T16:02:45.643Z,78.73
2019-02-17T16:05:14.299Z,91.17
2019-02-17T16:07:42.591Z,87.63
2019-02-17T16:10:15.506Z,67.37
2019-02-17T16:12:44.151Z,67.97
2019-02-17T16:15:21.547Z,58.47
2019-02-17T16:17:49.931Z,57.40
2019-02-17T16:20:18.342Z,54.13
2019-02-17T16:22:46.622Z,53.03
2019-02-17T16:25:15.268Z,53.40
2019-02-17T16:27:44.052Z,55.33
2019-02-17T16:30:24.833Z,53.80
2019-02-17T16:32:53.135Z,51.67
2019-02-17T16:35:21.687Z,46.57
2019-02-17T16:37:49.983Z,47.60
2019-02-17T16:40:18.845Z,49.10
2019-02-17T16:42:47.203Z,50.97
2019-02-17T16:45:15.493Z,53.33
2019-02-17T16:47:45.599Z,81.63
2019-02-17T16:50:26.306Z,94.60
2019-02-17T16:52:54.616Z,85.87
2019-02-17T16:55:23.252Z,84.80
2019-02-17T16:57:51.830Z,84.27
2019-02-17T17:00:24.823Z,75.63
2019-02-17T17:02:54.349Z,78.43
2019-02-17T17:05:23.843Z,94.33
2019-02-17T17:07:52.204Z,84.73
2019-02-17T17:10:20.540Z,84.60
2019-02-17T17:12:48.848Z,80.20
2019-02-17T17:15:17.164Z,79.87
2019-02-17T17:17:45.707Z,76.67
2019-02-17T17:20:16.329Z,86.30
2019-02-17T17:22:44.949Z,79.47
2019-02-17T17:25:13.285Z,87.03
2019-02-17T17:27:41.593Z,92.63
2019-02-17T17:30:14.390Z,121.87
2019-02-17T17:32:42.683Z,134.87
2019-02-17T17:35:11.559Z,131.83
2019-02-17T17:37:39.861Z,129.07
2019-02-17T17:40:10.728Z,125.77
2019-02-17T17:42:39.091Z,118.53
2019-02-17T17:45:15.993Z,123.40
2019-02-17T17:47:44.604Z,124.57
2019-02-17T17:50:14.417Z,117.77
2019-02-17T17:52:43.024Z,117.57
2019-02-17T17:55:12.331Z,110.67
2019-02-17T17:57:40.645Z,109.77
2019-02-17T18:00:12.392Z,176.63
2019-02-17T18:02:41.048Z,133.77
2019-02-17T18:05:09.776Z,136.93
2019-02-17T18:07:38.503Z,133.83
2019-02-17T18:10:13.096Z,124.90
2019-02-17T18:12:41.722Z,120.13
2019-02-17T18:15:20.375Z,117.30
2019-02-17T18:17:54.671Z,113.93
2019-02-17T18:20:19.340Z,114.83
2019-02-17T18:22:47.658Z,113.03
2019-02-17T18:25:16.303Z,114.07
2019-02-17T18:27:44.617Z,117.10
2019-02-17T18:30:18.223Z,112.83
2019-02-17T18:32:46.969Z,110.03
2019-02-17T18:35:19.970Z,102.67
2019-02-17T18:37:45.980Z,99.17
2019-02-17T18:40:16.918Z,98.63
2019-02-17T18:42:45.208Z,102.90
2019-02-17T18:45:14.805Z,107.43
2019-02-17T18:47:43.157Z,107.10
2019-02-17T18:50:18.649Z,105.33
2019-02-17T18:52:46.961Z,97.53
2019-02-17T18:55:15.811Z,92.27
2019-02-17T18:57:50.048Z,93.53
2019-02-17T19:00:23.818Z,99.53
2019-02-17T19:02:52.412Z,97.57
2019-02-17T19:05:31.024Z,97.53
2019-02-17T19:07:51.623Z,97.97
2019-02-17T19:10:19.922Z,98.73
2019-02-17T19:12:48.295Z,95.93
2019-02-17T19:15:18.582Z,93.90
2019-02-17T19:17:46.882Z,90.13
2019-02-17T19:20:18.235Z,89.23
2019-02-17T19:22:47.036Z,86.10
2019-02-17T19:25:15.804Z,83.20
2019-02-17T19:27:44.385Z,82.03
2019-02-17T19:30:14.986Z,76.97
2019-02-17T19:32:43.595Z,76.37
2019-02-17T19:35:16.254Z,84.37
2019-02-17T19:37:44.859Z,88.63
2019-02-17T19:40:14.467Z,97.50
2019-02-17T19:42:43.097Z,80.63
2019-02-17T19:45:14.743Z,98.70
2019-02-17T19:47:43.439Z,93.23
2019-02-17T19:50:13.610Z,94.27
2019-02-17T19:52:43.539Z,93.93
2019-02-17T19:55:12.732Z,96.07
2019-02-17T19:57:41.143Z,94.83
2019-02-17T20:00:15.037Z,91.13
2019-02-17T20:03:03.700Z,88.67
2019-02-17T20:05:36.339Z,85.27
2019-02-17T20:08:04.671Z,78.20
2019-02-17T20:10:33.316Z,79.47
2019-02-17T20:13:01.649Z,74.23
2019-02-17T20:15:31.617Z,76.00
2019-02-17T20:18:00.286Z,73.67
2019-02-17T20:20:28.842Z,76.67
2019-02-17T20:22:57.467Z,68.07
2019-02-17T20:25:26.053Z,63.77
2019-02-17T20:27:54.736Z,61.53
2019-02-17T20:30:23.390Z,110.50
2019-02-17T20:32:52.000Z,119.07
2019-02-17T20:35:20.797Z,107.13
2019-02-17T20:37:49.134Z,88.13
2019-02-17T20:40:18.695Z,84.00
2019-02-17T20:42:47.375Z,79.63
2019-02-17T20:45:15.738Z,77.47
2019-02-17T20:47:44.320Z,74.80
2019-02-17T20:50:15.476Z,68.70
2019-02-17T20:52:44.273Z,65.33
2019-02-17T20:55:13.002Z,61.23
2019-02-17T20:57:41.295Z,58.47
2019-02-17T21:00:12.465Z,54.63
2019-02-17T21:02:40.792Z,55.20
2019-02-17T21:05:10.421Z,54.13
2019-02-17T21:07:38.807Z,55.73
2019-02-17T21:10:09.720Z,61.50
2019-02-17T21:12:38.057Z,60.67
2019-02-17T21:15:10.012Z,73.77
2019-02-17T21:17:39.932Z,78.40
2019-02-17T21:20:09.740Z,79.57
2019-02-17T21:22:38.451Z,59.13
2019-02-17T21:25:13.787Z,54.43
2019-02-17T21:27:42.102Z,54.67
2019-02-17T21:30:18.025Z,59.60
2019-02-17T21:32:48.484Z,72.97
2019-02-17T21:35:17.526Z,58.83
2019-02-17T21:37:46.475Z,56.37
2019-02-17T21:40:14.925Z,55.90
2019-02-17T21:42:43.571Z,52.53
2019-02-17T21:45:15.947Z,62.63
2019-02-17T21:47:44.530Z,59.83
2019-02-17T21:50:13.784Z,60.23
2019-02-17T21:52:42.405Z,78.30
2019-02-17T21:55:12.332Z,73.13
2019-02-17T21:57:40.630Z,68.97
2019-02-17T22:00:16.838Z,65.97
2019-02-17T22:02:45.451Z,69.07
2019-02-17T22:05:13.975Z,59.10
2019-02-17T22:07:42.283Z,66.23
2019-02-17T22:10:16.322Z,85.43
2019-02-17T22:12:44.920Z,68.97
2019-02-17T22:15:18.296Z,66.30
2019-02-17T22:17:46.894Z,61.00
2019-02-17T22:20:15.466Z,97.97
2019-02-17T22:22:43.769Z,96.93
2019-02-17T22:25:12.943Z,88.07
2019-02-17T22:27:41.264Z,79.80
2019-02-17T22:30:11.757Z,74.80
2019-02-17T22:32:40.573Z,72.17
2019-02-17T22:35:09.167Z,76.67
2019-02-17T22:37:37.748Z,79.73
2019-02-17T22:40:09.233Z,73.90
2019-02-17T22:42:37.556Z,72.30
2019-02-17T22:45:08.460Z,74.57
2019-02-17T22:47:37.302Z,71.17
2019-02-17T22:50:08.965Z,69.03
2019-02-17T22:52:37.722Z,68.43
2019-02-17T22:55:08.993Z,65.30
2019-02-17T22:57:37.295Z,64.13
2019-02-17T23:00:14.948Z,68.90
2019-02-17T23:02:43.316Z,61.33
2019-02-17T23:05:11.855Z,56.90
2019-02-17T23:07:40.149Z,61.13
2019-02-17T23:10:09.508Z,53.70
2019-02-17T23:12:38.082Z,67.70
2019-02-17T23:15:07.956Z,62.03
2019-02-17T23:17:36.254Z,73.60
2019-02-17T23:20:06.076Z,81.50
2019-02-17T23:22:34.686Z,82.83
2019-02-17T23:25:03.255Z,76.77
2019-02-17T23:27:31.541Z,77.67
2019-02-17T23:29:59.922Z,74.53
2019-02-17T23:32:28.496Z,72.70
2019-02-17T23:34:57.110Z,76.17
2019-02-17T23:37:25.774Z,70.23
2019-02-17T23:39:54.735Z,69.07
2019-02-17T23:42:23.007Z,66.80
2019-02-17T23:44:51.629Z,69.00
2019-02-17T23:47:19.940Z,70.17
2019-02-17T23:49:48.693Z,66.17
2019-02-17T23:52:17.280Z,66.17
2019-02-17T23:54:45.772Z,70.83
2019-02-17T23:57:14.610Z,67.27
2019-02-17T23:59:43.218Z,65.53
